sensor_id;sensor_type;location;lat;lon;timestamp;pressure;altitude;pressure_sealevel;temperature;humidity
11676;BME280;5894;42.768;23.404;2023-02-22T00:01:11;95626.09;;;6.63;73.67
11676;BME280;5894;42.768;23.404;2023-02-22T00:03:48;95590.38;;;6.43;73.53
11676;BME280;5894;42.768;23.404;2023-02-22T00:06:19;95601.06;;;6.47;73.89
11676;BME280;5894;42.768;23.404;2023-02-22T00:08:49;95614.69;;;6.44;73.97
11676;BME280;5894;42.768;23.404;2023-02-22T00:11:16;95612.75;;;6.25;77.37
11676;BME280;5894;42.768;23.404;2023-02-22T00:13:45;95609.97;;;6.12;79.04
11676;BME280;5894;42.768;23.404;2023-02-22T00:16:16;95630.56;;;6.23;80.03
11676;BME280;5894;42.768;23.404;2023-02-22T00:18:43;95626.63;;;6.26;80.17
11676;BME280;5894;42.768;23.404;2023-02-22T00:21:11;95617.00;;;6.16;79.91
11676;BME280;5894;42.768;23.404;2023-02-22T00:23:41;95623.47;;;6.29;77.67
11676;BME280;5894;42.768;23.404;2023-02-22T00:26:12;95637.22;;;6.06;79.75
11676;BME280;5894;42.768;23.404;2023-02-22T00:28:45;95629.72;;;5.89;80.35
11676;BME280;5894;42.768;23.404;2023-02-22T00:31:12;95625.22;;;5.95;81.20
11676;BME280;5894;42.768;23.404;2023-02-22T00:33:39;95612.97;;;5.90;78.37
11676;BME280;5894;42.768;23.404;2023-02-22T00:36:07;95619.50;;;5.82;78.29
11676;BME280;5894;42.768;23.404;2023-02-22T00:38:36;95632.69;;;5.57;80.46
11676;BME280;5894;42.768;23.404;2023-02-22T00:41:04;95628.41;;;5.07;83.59
11676;BME280;5894;42.768;23.404;2023-02-22T00:43:31;95601.25;;;4.47;86.21
11676;BME280;5894;42.768;23.404;2023-02-22T00:45:58;95624.50;;;4.23;91.00
11676;BME280;5894;42.768;23.404;2023-02-22T00:48:25;95570.09;;;3.59;94.64
11676;BME280;5894;42.768;23.404;2023-02-22T00:50:52;95611.38;;;3.83;96.67
11676;BME280;5894;42.768;23.404;2023-02-22T00:53:20;95620.78;;;3.89;99.56
11676;BME280;5894;42.768;23.404;2023-02-22T00:55:47;95617.94;;;4.11;99.99
11676;BME280;5894;42.768;23.404;2023-02-22T00:58:16;95616.13;;;4.21;97.21
11676;BME280;5894;42.768;23.404;2023-02-22T01:00:44;95613.81;;;4.60;95.51
11676;BME280;5894;42.768;23.404;2023-02-22T01:03:16;95556.88;;;4.42;93.31
11676;BME280;5894;42.768;23.404;2023-02-22T01:05:43;95604.63;;;4.88;91.31
11676;BME280;5894;42.768;23.404;2023-02-22T01:08:12;95607.78;;;4.95;89.69
11676;BME280;5894;42.768;23.404;2023-02-22T01:10:39;95607.47;;;5.12;87.67
11676;BME280;5894;42.768;23.404;2023-02-22T01:13:07;95604.63;;;5.08;88.35
11676;BME280;5894;42.768;23.404;2023-02-22T01:15:40;95601.41;;;5.22;87.34
11676;BME280;5894;42.768;23.404;2023-02-22T01:18:09;95601.94;;;5.24;87.40
11676;BME280;5894;42.768;23.404;2023-02-22T01:20:37;95598.53;;;5.28;88.39
11676;BME280;5894;42.768;23.404;2023-02-22T01:23:05;95598.78;;;5.37;87.29
11676;BME280;5894;42.768;23.404;2023-02-22T01:25:33;95530.38;;;4.99;86.57
11676;BME280;5894;42.768;23.404;2023-02-22T01:28:01;95550.97;;;5.21;85.98
11676;BME280;5894;42.768;23.404;2023-02-22T01:30:30;95591.41;;;5.44;85.66
11676;BME280;5894;42.768;23.404;2023-02-22T01:33:00;95591.16;;;5.45;86.17
11676;BME280;5894;42.768;23.404;2023-02-22T01:35:29;95556.72;;;5.23;85.73
11676;BME280;5894;42.768;23.404;2023-02-22T01:37:57;95567.13;;;5.38;84.54
11676;BME280;5894;42.768;23.404;2023-02-22T01:40:28;95596.03;;;5.62;81.25
11676;BME280;5894;42.768;23.404;2023-02-22T01:42:58;95591.63;;;5.52;81.04
11676;BME280;5894;42.768;23.404;2023-02-22T01:45:43;95572.63;;;5.32;82.58
11676;BME280;5894;42.768;23.404;2023-02-22T01:48:17;95588.28;;;5.42;83.18
11676;BME280;5894;42.768;23.404;2023-02-22T01:50:51;95586.19;;;5.44;81.26
11676;BME280;5894;42.768;23.404;2023-02-22T01:53:22;95563.53;;;5.09;83.32
11676;BME280;5894;42.768;23.404;2023-02-22T01:55:50;95544.81;;;4.82;84.48
11676;BME280;5894;42.768;23.404;2023-02-22T01:58:20;95537.00;;;4.71;85.72
11676;BME280;5894;42.768;23.404;2023-02-22T02:00:47;95592.31;;;5.14;86.38
11676;BME280;5894;42.768;23.404;2023-02-22T02:03:18;95597.00;;;5.12;87.12
11676;BME280;5894;42.768;23.404;2023-02-22T02:05:49;95589.16;;;5.17;87.46
11676;BME280;5894;42.768;23.404;2023-02-22T02:08:28;95592.31;;;5.19;86.95
11676;BME280;5894;42.768;23.404;2023-02-22T02:10:57;95586.56;;;5.17;86.23
11676;BME280;5894;42.768;23.404;2023-02-22T02:13:26;95609.00;;;5.23;86.22
11676;BME280;5894;42.768;23.404;2023-02-22T02:15:53;95596.19;;;5.27;86.40
11676;BME280;5894;42.768;23.404;2023-02-22T02:18:23;95596.41;;;5.30;86.64
11676;BME280;5894;42.768;23.404;2023-02-22T02:21:19;95558.09;;;5.05;86.18
11676;BME280;5894;42.768;23.404;2023-02-22T02:24:18;95590.97;;;5.27;85.65
11676;BME280;5894;42.768;23.404;2023-02-22T02:27:06;95596.19;;;5.27;86.18
11676;BME280;5894;42.768;23.404;2023-02-22T02:30:20;95611.09;;;5.21;86.18
11676;BME280;5894;42.768;23.404;2023-02-22T02:32:58;95601.19;;;5.18;86.66
11676;BME280;5894;42.768;23.404;2023-02-22T02:35:37;95565.19;;;4.85;86.39
11676;BME280;5894;42.768;23.404;2023-02-22T02:38:15;95608.25;;;5.12;86.43
11676;BME280;5894;42.768;23.404;2023-02-22T02:40:46;95611.66;;;5.03;88.14
11676;BME280;5894;42.768;23.404;2023-02-22T02:43:20;95605.91;;;5.06;88.43
11676;BME280;5894;42.768;23.404;2023-02-22T02:45:56;95605.09;;;5.15;86.50
11676;BME280;5894;42.768;23.404;2023-02-22T02:48:27;95611.41;;;4.99;88.20
11676;BME280;5894;42.768;23.404;2023-02-22T02:50:57;95610.59;;;5.19;86.80
11676;BME280;5894;42.768;23.404;2023-02-22T02:53:31;95615.31;;;5.12;87.45
11676;BME280;5894;42.768;23.404;2023-02-22T02:56:00;95595.50;;;4.86;90.31
11676;BME280;5894;42.768;23.404;2023-02-22T02:58:27;95577.75;;;4.72;91.36
11676;BME280;5894;42.768;23.404;2023-02-22T03:00:56;95582.19;;;4.72;91.19
11676;BME280;5894;42.768;23.404;2023-02-22T03:03:50;95622.66;;;4.95;90.66
11676;BME280;5894;42.768;23.404;2023-02-22T03:06:48;95613.00;;;4.95;90.88
11676;BME280;5894;42.768;23.404;2023-02-22T03:09:28;95602.53;;;4.90;91.76
11676;BME280;5894;42.768;23.404;2023-02-22T03:12:06;95616.34;;;5.16;91.50
11676;BME280;5894;42.768;23.404;2023-02-22T03:14:41;95621.84;;;5.04;92.62
11676;BME280;5894;42.768;23.404;2023-02-22T03:17:19;95616.91;;;5.08;90.76
11676;BME280;5894;42.768;23.404;2023-02-22T03:19:55;95625.00;;;5.01;92.04
11676;BME280;5894;42.768;23.404;2023-02-22T03:22:26;95607.75;;;5.00;91.71
11676;BME280;5894;42.768;23.404;2023-02-22T03:25:00;95616.88;;;5.13;90.53
11676;BME280;5894;42.768;23.404;2023-02-22T03:27:34;95622.34;;;5.11;89.35
11676;BME280;5894;42.768;23.404;2023-02-22T03:30:09;95625.75;;;5.12;89.16
11676;BME280;5894;42.768;23.404;2023-02-22T03:32:40;95641.72;;;5.00;90.87
11676;BME280;5894;42.768;23.404;2023-02-22T03:35:13;95619.53;;;4.98;90.95
11676;BME280;5894;42.768;23.404;2023-02-22T03:37:45;95626.81;;;5.01;90.24
11676;BME280;5894;42.768;23.404;2023-02-22T03:40:19;95626.81;;;5.01;88.89
11676;BME280;5894;42.768;23.404;2023-02-22T03:42:55;95626.06;;;4.80;87.69
11676;BME280;5894;42.768;23.404;2023-02-22T03:45:26;95633.91;;;4.50;91.64
11676;BME280;5894;42.768;23.404;2023-02-22T03:48:00;95613.00;;;4.14;94.07
11676;BME280;5894;42.768;23.404;2023-02-22T03:50:33;95619.78;;;4.20;94.93
11676;BME280;5894;42.768;23.404;2023-02-22T03:53:02;95633.88;;;4.04;98.47
11676;BME280;5894;42.768;23.404;2023-02-22T03:55:34;95624.22;;;4.10;98.93
11676;BME280;5894;42.768;23.404;2023-02-22T03:58:05;95583.72;;;3.82;96.71
11676;BME280;5894;42.768;23.404;2023-02-22T04:00:34;95638.53;;;3.97;98.99
11676;BME280;5894;42.768;23.404;2023-02-22T04:03:02;95617.41;;;3.98;98.60
11676;BME280;5894;42.768;23.404;2023-02-22T04:05:30;95636.47;;;4.04;98.85
11676;BME280;5894;42.768;23.404;2023-02-22T04:07:57;95634.66;;;4.10;98.79
11676;BME280;5894;42.768;23.404;2023-02-22T04:10:25;95632.84;;;4.15;97.73
11676;BME280;5894;42.768;23.404;2023-02-22T04:12:52;95635.44;;;4.20;96.51
11676;BME280;5894;42.768;23.404;2023-02-22T04:15:20;95498.81;;;3.18;96.89
11676;BME280;5894;42.768;23.404;2023-02-22T04:17:49;95616.00;;;3.60;100.00
11676;BME280;5894;42.768;23.404;2023-02-22T04:20:18;95626.47;;;3.71;100.00
11676;BME280;5894;42.768;23.404;2023-02-22T04:22:55;95628.03;;;3.72;100.00
11676;BME280;5894;42.768;23.404;2023-02-22T04:25:22;95632.72;;;3.69;100.00
11676;BME280;5894;42.768;23.404;2023-02-22T04:27:50;95625.97;;;3.79;100.00
11676;BME280;5894;42.768;23.404;2023-02-22T04:30:21;95627.47;;;3.64;100.00
11676;BME280;5894;42.768;23.404;2023-02-22T04:32:49;95636.53;;;3.47;100.00
11676;BME280;5894;42.768;23.404;2023-02-22T04:35:19;95627.41;;;3.49;100.00
11676;BME280;5894;42.768;23.404;2023-02-22T04:37:46;95609.28;;;3.22;100.00
11676;BME280;5894;42.768;23.404;2023-02-22T04:40:16;95539.78;;;2.76;100.00
11676;BME280;5894;42.768;23.404;2023-02-22T04:42:43;95640.41;;;3.44;100.00
11676;BME280;5894;42.768;23.404;2023-02-22T04:45:13;95629.28;;;3.59;100.00
11676;BME280;5894;42.768;23.404;2023-02-22T04:47:40;95623.31;;;3.68;100.00
11676;BME280;5894;42.768;23.404;2023-02-22T04:50:08;95632.22;;;3.73;100.00
11676;BME280;5894;42.768;23.404;2023-02-22T04:52:35;95618.38;;;3.72;99.59
11676;BME280;5894;42.768;23.404;2023-02-22T04:55:02;95629.13;;;3.91;98.68
11676;BME280;5894;42.768;23.404;2023-02-22T04:57:32;95627.31;;;3.91;98.56
11676;BME280;5894;42.768;23.404;2023-02-22T04:59:59;95598.31;;;3.73;97.92
11676;BME280;5894;42.768;23.404;2023-02-22T05:02:27;95634.34;;;3.96;98.26
11676;BME280;5894;42.768;23.404;2023-02-22T05:04:54;95639.31;;;3.97;98.28
11676;BME280;5894;42.768;23.404;2023-02-22T05:07:20;95633.84;;;4.09;96.45
11676;BME280;5894;42.768;23.404;2023-02-22T05:09:47;95635.16;;;4.01;97.45
11676;BME280;5894;42.768;23.404;2023-02-22T05:12:14;95600.63;;;3.69;97.19
11676;BME280;5894;42.768;23.404;2023-02-22T05:14:42;95646.13;;;4.03;96.83
11676;BME280;5894;42.768;23.404;2023-02-22T05:17:12;95643.25;;;4.00;97.49
11676;BME280;5894;42.768;23.404;2023-02-22T05:19:39;95497.94;;;2.98;97.23
11676;BME280;5894;42.768;23.404;2023-02-22T05:22:06;95648.97;;;4.07;96.48
11676;BME280;5894;42.768;23.404;2023-02-22T05:24:33;95564.81;;;3.39;97.54
11676;BME280;5894;42.768;23.404;2023-02-22T05:27:00;95654.47;;;4.00;97.28
11676;BME280;5894;42.768;23.404;2023-02-22T05:29:26;95670.13;;;4.00;97.29
11676;BME280;5894;42.768;23.404;2023-02-22T05:31:55;95633.78;;;3.79;97.65
11676;BME280;5894;42.768;23.404;2023-02-22T05:34:22;95651.03;;;3.95;96.88
11676;BME280;5894;42.768;23.404;2023-02-22T05:36:49;95670.69;;;4.13;97.13
11676;BME280;5894;42.768;23.404;2023-02-22T05:39:16;95677.47;;;4.14;97.39
11676;BME280;5894;42.768;23.404;2023-02-22T05:41:43;95680.88;;;4.24;99.67
11676;BME280;5894;42.768;23.404;2023-02-22T05:44:10;95673.50;;;4.06;100.00
11676;BME280;5894;42.768;23.404;2023-02-22T05:46:36;95634.56;;;3.79;100.00
11676;BME280;5894;42.768;23.404;2023-02-22T05:49:04;95671.44;;;4.03;100.00
11676;BME280;5894;42.768;23.404;2023-02-22T05:51:31;95680.59;;;4.11;100.00
11676;BME280;5894;42.768;23.404;2023-02-22T05:53:58;95678.25;;;4.19;99.14
11676;BME280;5894;42.768;23.404;2023-02-22T05:56:27;95623.09;;;3.80;98.04
11676;BME280;5894;42.768;23.404;2023-02-22T05:58:54;95682.72;;;4.29;96.97
11676;BME280;5894;42.768;23.404;2023-02-22T06:01:21;95702.56;;;4.30;95.02
11676;BME280;5894;42.768;23.404;2023-02-22T06:03:49;95671.22;;;4.25;95.63
11676;BME280;5894;42.768;23.404;2023-02-22T06:06:18;95681.94;;;4.38;94.44
11676;BME280;5894;42.768;23.404;2023-02-22T06:08:45;95692.94;;;4.51;93.65
11676;BME280;5894;42.768;23.404;2023-02-22T06:11:12;95687.69;;;4.35;94.25
11676;BME280;5894;42.768;23.404;2023-02-22T06:13:39;95698.13;;;4.40;95.38
11676;BME280;5894;42.768;23.404;2023-02-22T06:16:06;95695.78;;;4.49;94.76
11676;BME280;5894;42.768;23.404;2023-02-22T06:18:33;95697.88;;;4.47;94.95
11676;BME280;5894;42.768;23.404;2023-02-22T06:21:00;95707.81;;;4.60;93.60
11676;BME280;5894;42.768;23.404;2023-02-22T06:23:28;95701.06;;;4.74;91.19
11676;BME280;5894;42.768;23.404;2023-02-22T06:25:55;95689.56;;;4.70;90.53
11676;BME280;5894;42.768;23.404;2023-02-22T06:28:22;95704.19;;;4.82;90.21
11676;BME280;5894;42.768;23.404;2023-02-22T06:30:49;95658.47;;;4.59;90.09
11676;BME280;5894;42.768;23.404;2023-02-22T06:33:16;95694.78;;;4.96;90.29
11676;BME280;5894;42.768;23.404;2023-02-22T06:35:43;95687.22;;;5.04;90.75
11676;BME280;5894;42.768;23.404;2023-02-22T06:38:09;95705.78;;;5.08;90.36
11676;BME280;5894;42.768;23.404;2023-02-22T06:40:38;95716.50;;;4.96;92.42
11676;BME280;5894;42.768;23.404;2023-02-22T06:43:04;95711.00;;;4.93;93.79
11676;BME280;5894;42.768;23.404;2023-02-22T06:45:31;95701.84;;;4.95;94.08
11676;BME280;5894;42.768;23.404;2023-02-22T06:47:58;95704.44;;;5.10;93.22
11676;BME280;5894;42.768;23.404;2023-02-22T06:50:27;95696.84;;;5.24;92.29
11676;BME280;5894;42.768;23.404;2023-02-22T06:52:54;95695.28;;;5.38;91.66
11676;BME280;5894;42.768;23.404;2023-02-22T06:55:23;95673.06;;;5.21;91.31
11676;BME280;5894;42.768;23.404;2023-02-22T06:57:51;95685.81;;;5.52;90.22
11676;BME280;5894;42.768;23.404;2023-02-22T07:00:20;95689.66;;;5.80;89.38
11676;BME280;5894;42.768;23.404;2023-02-22T07:02:47;95701.09;;;6.05;86.47
11676;BME280;5894;42.768;23.404;2023-02-22T07:05:15;95701.03;;;6.20;85.07
11676;BME280;5894;42.768;23.404;2023-02-22T07:07:42;95672.81;;;6.12;85.34
11676;BME280;5894;42.768;23.404;2023-02-22T07:10:17;95695.41;;;6.42;84.28
11676;BME280;5894;42.768;23.404;2023-02-22T07:12:44;95689.81;;;6.58;82.39
11676;BME280;5894;42.768;23.404;2023-02-22T07:15:12;95646.97;;;6.39;81.82
11676;BME280;5894;42.768;23.404;2023-02-22T07:17:40;95682.84;;;6.78;81.32
11676;BME280;5894;42.768;23.404;2023-02-22T07:20:07;95681.63;;;6.99;80.12
11676;BME280;5894;42.768;23.404;2023-02-22T07:22:36;95680.75;;;7.09;79.31
11676;BME280;5894;42.768;23.404;2023-02-22T07:25:03;95681.72;;;7.18;79.15
11676;BME280;5894;42.768;23.404;2023-02-22T07:27:30;95674.28;;;7.30;78.34
11676;BME280;5894;42.768;23.404;2023-02-22T07:29:57;95681.66;;;7.52;77.75
11676;BME280;5894;42.768;23.404;2023-02-22T07:32:25;95681.56;;;7.62;77.53
11676;BME280;5894;42.768;23.404;2023-02-22T07:34:52;95685.13;;;7.71;77.03
11676;BME280;5894;42.768;23.404;2023-02-22T07:37:18;95674.91;;;7.69;76.93
11676;BME280;5894;42.768;23.404;2023-02-22T07:39:46;95679.75;;;7.81;77.75
11676;BME280;5894;42.768;23.404;2023-02-22T07:42:13;95682.84;;;7.88;78.01
11676;BME280;5894;42.768;23.404;2023-02-22T07:44:40;95684.56;;;7.98;78.25
11676;BME280;5894;42.768;23.404;2023-02-22T07:47:07;95631.25;;;7.79;77.87
11676;BME280;5894;42.768;23.404;2023-02-22T07:49:38;95673.66;;;8.09;77.29
11676;BME280;5894;42.768;23.404;2023-02-22T07:52:05;95677.41;;;8.03;76.62
11676;BME280;5894;42.768;23.404;2023-02-22T07:54:32;95667.19;;;8.02;76.01
11676;BME280;5894;42.768;23.404;2023-02-22T07:56:59;95675.72;;;8.13;75.89
11676;BME280;5894;42.768;23.404;2023-02-22T07:59:27;95674.59;;;8.19;75.92
11676;BME280;5894;42.768;23.404;2023-02-22T08:01:54;95676.34;;;8.23;75.81
11676;BME280;5894;42.768;23.404;2023-02-22T08:04:21;95671.31;;;8.27;75.99
11676;BME280;5894;42.768;23.404;2023-02-22T08:06:49;95628.56;;;8.02;75.96
11676;BME280;5894;42.768;23.404;2023-02-22T08:09:16;95667.63;;;8.28;76.43
11676;BME280;5894;42.768;23.404;2023-02-22T08:11:43;95668.75;;;8.22;76.28
11676;BME280;5894;42.768;23.404;2023-02-22T08:14:14;95672.13;;;8.27;76.99
11676;BME280;5894;42.768;23.404;2023-02-22T08:16:41;95666.25;;;8.35;74.88
11676;BME280;5894;42.768;23.404;2023-02-22T08:19:08;95551.34;;;7.66;75.20
11676;BME280;5894;42.768;23.404;2023-02-22T08:21:34;95667.38;;;8.48;74.26
11676;BME280;5894;42.768;23.404;2023-02-22T08:24:03;95670.44;;;8.55;72.32
11676;BME280;5894;42.768;23.404;2023-02-22T08:26:30;95568.81;;;7.94;72.56
11676;BME280;5894;42.768;23.404;2023-02-22T08:28:56;95658.69;;;8.66;72.42
11676;BME280;5894;42.768;23.404;2023-02-22T08:31:23;95648.47;;;8.65;71.91
11676;BME280;5894;42.768;23.404;2023-02-22T08:33:50;95620.72;;;8.59;72.00
11676;BME280;5894;42.768;23.404;2023-02-22T08:36:17;95661.22;;;8.90;71.75
11676;BME280;5894;42.768;23.404;2023-02-22T08:38:45;95640.19;;;8.90;71.88
11676;BME280;5894;42.768;23.404;2023-02-22T08:41:13;95653.84;;;9.06;71.02
11676;BME280;5894;42.768;23.404;2023-02-22T08:43:40;95635.03;;;8.99;71.09
11676;BME280;5894;42.768;23.404;2023-02-22T08:46:07;95651.75;;;9.22;71.65
11676;BME280;5894;42.768;23.404;2023-02-22T08:48:33;95645.13;;;9.24;71.79
11676;BME280;5894;42.768;23.404;2023-02-22T08:51:00;95655.19;;;9.36;72.20
11676;BME280;5894;42.768;23.404;2023-02-22T08:53:27;95615.00;;;9.16;72.07
11676;BME280;5894;42.768;23.404;2023-02-22T08:55:54;95639.09;;;9.37;71.13
11676;BME280;5894;42.768;23.404;2023-02-22T08:58:22;95616.59;;;9.31;71.24
11676;BME280;5894;42.768;23.404;2023-02-22T09:00:49;95640.50;;;9.62;70.85
11676;BME280;5894;42.768;23.404;2023-02-22T09:03:16;95634.34;;;9.67;70.29
11676;BME280;5894;42.768;23.404;2023-02-22T09:05:43;95632.19;;;9.69;70.23
11676;BME280;5894;42.768;23.404;2023-02-22T09:08:11;95602.47;;;9.54;70.37
11676;BME280;5894;42.768;23.404;2023-02-22T09:10:38;95613.84;;;9.77;70.08
11676;BME280;5894;42.768;23.404;2023-02-22T09:13:05;95633.94;;;9.87;70.49
11676;BME280;5894;42.768;23.404;2023-02-22T09:15:33;95627.38;;;9.98;70.54
11676;BME280;5894;42.768;23.404;2023-02-22T09:18:01;95634.13;;;10.04;70.38
11676;BME280;5894;42.768;23.404;2023-02-22T09:20:28;95629.63;;;10.18;69.30
11676;BME280;5894;42.768;23.404;2023-02-22T09:22:55;95619.94;;;10.27;68.92
11676;BME280;5894;42.768;23.404;2023-02-22T09:25:22;95621.97;;;10.30;69.74
11676;BME280;5894;42.768;23.404;2023-02-22T09:27:50;95619.25;;;10.36;69.25
11676;BME280;5894;42.768;23.404;2023-02-22T09:30:21;95595.44;;;10.27;69.55
11676;BME280;5894;42.768;23.404;2023-02-22T09:32:51;95605.59;;;10.56;68.92
11676;BME280;5894;42.768;23.404;2023-02-22T09:35:19;95617.63;;;10.71;69.65
11676;BME280;5894;42.768;23.404;2023-02-22T09:37:52;95606.97;;;10.76;69.92
11676;BME280;5894;42.768;23.404;2023-02-22T09:40:19;95606.53;;;10.82;69.27
11676;BME280;5894;42.768;23.404;2023-02-22T09:43:02;95603.94;;;10.91;69.31
11676;BME280;5894;42.768;23.404;2023-02-22T09:45:36;95604.31;;;10.98;67.53
11676;BME280;5894;42.768;23.404;2023-02-22T09:48:12;95604.06;;;11.08;68.30
11676;BME280;5894;42.768;23.404;2023-02-22T09:50:44;95579.81;;;11.06;67.40
11676;BME280;5894;42.768;23.404;2023-02-22T09:53:19;95588.44;;;11.20;67.33
11676;BME280;5894;42.768;23.404;2023-02-22T09:55:56;95600.63;;;11.38;65.88
11676;BME280;5894;42.768;23.404;2023-02-22T09:58:27;95586.53;;;11.52;66.40
11676;BME280;5894;42.768;23.404;2023-02-22T10:01:07;95582.22;;;11.64;65.71
11676;BME280;5894;42.768;23.404;2023-02-22T10:03:47;95572.94;;;11.75;64.80
11676;BME280;5894;42.768;23.404;2023-02-22T10:06:20;95573.59;;;11.90;64.76
11676;BME280;5894;42.768;23.404;2023-02-22T10:08:48;95542.63;;;11.73;65.16
11676;BME280;5894;42.768;23.404;2023-02-22T10:11:27;95466.72;;;11.30;63.87
11676;BME280;5894;42.768;23.404;2023-02-22T10:14:04;95566.63;;;12.11;61.19
11676;BME280;5894;42.768;23.404;2023-02-22T10:16:39;95557.78;;;12.24;57.54
11676;BME280;5894;42.768;23.404;2023-02-22T10:19:21;95554.34;;;12.32;57.54
11676;BME280;5894;42.768;23.404;2023-02-22T10:22:16;95538.47;;;12.32;56.23
11676;BME280;5894;42.768;23.404;2023-02-22T10:24:54;95546.41;;;12.41;53.73
11676;BME280;5894;42.768;23.404;2023-02-22T10:27:29;95546.56;;;12.53;53.15
11676;BME280;5894;42.768;23.404;2023-02-22T10:30:01;95541.09;;;12.58;53.65
11676;BME280;5894;42.768;23.404;2023-02-22T10:32:40;95519.16;;;12.66;53.51
11676;BME280;5894;42.768;23.404;2023-02-22T10:35:21;95503.41;;;12.70;53.20
11676;BME280;5894;42.768;23.404;2023-02-22T10:37:50;95521.56;;;12.97;52.05
11676;BME280;5894;42.768;23.404;2023-02-22T10:40:20;95480.97;;;12.84;52.23
11676;BME280;5894;42.768;23.404;2023-02-22T10:42:57;95500.59;;;13.21;49.69
11676;BME280;5894;42.768;23.404;2023-02-22T10:45:28;95464.81;;;13.07;50.41
11676;BME280;5894;42.768;23.404;2023-02-22T10:47:59;95516.84;;;13.49;50.39
11676;BME280;5894;42.768;23.404;2023-02-22T10:50:29;95485.88;;;13.62;47.86
11676;BME280;5894;42.768;23.404;2023-02-22T10:52:57;95477.69;;;13.76;49.60
11676;BME280;5894;42.768;23.404;2023-02-22T10:55:24;95481.19;;;13.88;50.29
11676;BME280;5894;42.768;23.404;2023-02-22T10:57:59;95477.38;;;13.98;48.53
11676;BME280;5894;42.768;23.404;2023-02-22T11:00:32;95469.03;;;13.87;49.21
11676;BME280;5894;42.768;23.404;2023-02-22T11:03:04;95468.38;;;13.90;48.86
11676;BME280;5894;42.768;23.404;2023-02-22T11:05:35;95479.81;;;14.03;49.30
11676;BME280;5894;42.768;23.404;2023-02-22T11:08:23;95473.69;;;14.11;48.51
11676;BME280;5894;42.768;23.404;2023-02-22T11:10:51;95405.03;;;13.77;47.53
11676;BME280;5894;42.768;23.404;2023-02-22T11:13:23;95449.03;;;14.11;46.59
11676;BME280;5894;42.768;23.404;2023-02-22T11:15:51;95451.47;;;14.16;45.63
11676;BME280;5894;42.768;23.404;2023-02-22T11:18:25;95454.94;;;14.28;45.50
11676;BME280;5894;42.768;23.404;2023-02-22T11:21:05;95412.00;;;14.14;44.69
11676;BME280;5894;42.768;23.404;2023-02-22T11:23:36;95446.38;;;14.44;45.12
11676;BME280;5894;42.768;23.404;2023-02-22T11:26:07;95445.59;;;14.43;45.86
11676;BME280;5894;42.768;23.404;2023-02-22T11:28:35;95438.69;;;14.51;45.33
11676;BME280;5894;42.768;23.404;2023-02-22T11:31:12;95444.53;;;14.56;44.88
11676;BME280;5894;42.768;23.404;2023-02-22T11:33:47;95433.91;;;14.56;44.22
11676;BME280;5894;42.768;23.404;2023-02-22T11:36:30;95429.88;;;14.71;41.45
11676;BME280;5894;42.768;23.404;2023-02-22T11:38:57;95424.22;;;14.73;45.16
11676;BME280;5894;42.768;23.404;2023-02-22T11:41:26;95430.09;;;14.90;43.87
11676;BME280;5894;42.768;23.404;2023-02-22T11:43:53;95426.78;;;14.93;44.37
11676;BME280;5894;42.768;23.404;2023-02-22T11:46:39;95397.66;;;14.85;43.91
11676;BME280;5894;42.768;23.404;2023-02-22T11:49:08;95419.59;;;14.94;44.15
11676;BME280;5894;42.768;23.404;2023-02-22T11:51:48;95424.69;;;15.11;43.16
11676;BME280;5894;42.768;23.404;2023-02-22T11:54:37;95422.47;;;15.13;42.79
11676;BME280;5894;42.768;23.404;2023-02-22T11:57:14;95416.47;;;15.16;42.20
11676;BME280;5894;42.768;23.404;2023-02-22T11:59:57;95379.88;;;14.97;43.88
11676;BME280;5894;42.768;23.404;2023-02-22T12:02:53;95411.16;;;15.16;44.05
11676;BME280;5894;42.768;23.404;2023-02-22T12:05:39;95415.28;;;15.26;42.00
11676;BME280;5894;42.768;23.404;2023-02-22T12:08:21;95402.72;;;15.38;40.97
11676;BME280;5894;42.768;23.404;2023-02-22T12:10:57;95408.16;;;15.42;42.26
11676;BME280;5894;42.768;23.404;2023-02-22T12:13:43;95404.59;;;15.50;41.83
11676;BME280;5894;42.768;23.404;2023-02-22T12:16:17;95353.16;;;15.18;41.71
11676;BME280;5894;42.768;23.404;2023-02-22T12:19:00;95393.09;;;15.46;43.02
11676;BME280;5894;42.768;23.404;2023-02-22T12:21:35;95370.63;;;15.43;42.40
11676;BME280;5894;42.768;23.404;2023-02-22T12:24:08;95341.91;;;15.49;42.01
11676;BME280;5894;42.768;23.404;2023-02-22T12:26:40;95381.84;;;15.77;41.54
11676;BME280;5894;42.768;23.404;2023-02-22T12:29:11;95378.06;;;15.78;42.00
11676;BME280;5894;42.768;23.404;2023-02-22T12:31:42;95374.56;;;15.90;41.97
11676;BME280;5894;42.768;23.404;2023-02-22T12:34:18;95374.56;;;15.90;43.87
11676;BME280;5894;42.768;23.404;2023-02-22T12:36:52;95374.69;;;15.93;44.17
11676;BME280;5894;42.768;23.404;2023-02-22T12:39:36;95369.66;;;16.04;44.25
11676;BME280;5894;42.768;23.404;2023-02-22T12:42:12;95366.81;;;16.12;42.92
11676;BME280;5894;42.768;23.404;2023-02-22T12:44:46;95357.91;;;16.21;42.62
11676;BME280;5894;42.768;23.404;2023-02-22T12:47:20;95275.13;;;15.63;43.59
11676;BME280;5894;42.768;23.404;2023-02-22T12:49:53;95363.09;;;16.29;42.00
11676;BME280;5894;42.768;23.404;2023-02-22T12:52:34;95321.00;;;16.03;42.43
11676;BME280;5894;42.768;23.404;2023-02-22T12:55:11;95317.56;;;16.03;42.46
11676;BME280;5894;42.768;23.404;2023-02-22T12:57:43;95299.53;;;15.96;41.50
11676;BME280;5894;42.768;23.404;2023-02-22T13:00:16;95353.31;;;16.49;40.87
11676;BME280;5894;42.768;23.404;2023-02-22T13:02:55;95343.59;;;16.57;40.59
11676;BME280;5894;42.768;23.404;2023-02-22T13:05:23;95255.78;;;16.09;40.04
11676;BME280;5894;42.768;23.404;2023-02-22T13:08:01;95342.31;;;16.82;39.67
11676;BME280;5894;42.768;23.404;2023-02-22T13:10:53;95340.25;;;16.91;38.71
11676;BME280;5894;42.768;23.404;2023-02-22T13:13:29;95318.78;;;16.84;38.86
11676;BME280;5894;42.768;23.404;2023-02-22T13:16:01;95342.09;;;17.06;37.96
11676;BME280;5894;42.768;23.404;2023-02-22T13:18:36;95335.03;;;17.14;37.93
11676;BME280;5894;42.768;23.404;2023-02-22T13:21:10;95344.44;;;17.27;37.37
11676;BME280;5894;42.768;23.404;2023-02-22T13:23:44;95329.31;;;17.31;36.60
11676;BME280;5894;42.768;23.404;2023-02-22T13:26:19;95338.66;;;17.41;35.52
11676;BME280;5894;42.768;23.404;2023-02-22T13:28:50;95321.97;;;17.44;35.06